createdAt,value
2018-05-21T00:01:51.679Z,12.19
2018-05-21T00:04:19.321Z,12.04
2018-05-21T00:06:46.976Z,11.90
2018-05-21T00:09:14.613Z,11.65
2018-05-21T00:11:42.245Z,11.61
2018-05-21T00:14:09.965Z,11.71
2018-05-21T00:16:37.583Z,11.74
2018-05-21T00:19:05.219Z,11.79
2018-05-21T00:21:32.817Z,11.78
2018-05-21T00:24:00.458Z,11.73
2018-05-21T00:26:28.052Z,11.65
2018-05-21T00:28:55.663Z,11.52
2018-05-21T00:31:23.287Z,11.67
2018-05-21T00:33:50.948Z,11.54
2018-05-21T00:36:18.545Z,11.51
2018-05-21T00:38:46.175Z,11.44
2018-05-21T00:41:13.840Z,11.30
2018-05-21T00:43:41.524Z,11.31
2018-05-21T00:46:09.182Z,11.40
2018-05-21T00:48:36.800Z,11.45
2018-05-21T00:51:04.547Z,11.46
2018-05-21T00:53:32.199Z,11.48
2018-05-21T00:55:59.780Z,11.48
2018-05-21T00:58:27.448Z,11.52
2018-05-21T01:00:55.061Z,11.40
2018-05-21T01:03:22.644Z,11.31
2018-05-21T01:05:50.316Z,11.19
2018-05-21T01:08:17.943Z,11.12
2018-05-21T01:10:45.547Z,11.13
2018-05-21T01:13:13.215Z,11.15
2018-05-21T01:15:40.887Z,11.17
2018-05-21T01:18:09.398Z,11.13
2018-05-21T01:20:37.019Z,11.10
2018-05-21T01:23:04.603Z,11.21
2018-05-21T01:25:32.264Z,11.08
2018-05-21T01:27:59.936Z,10.97
2018-05-21T01:30:27.548Z,10.88
2018-05-21T01:32:55.183Z,10.88
2018-05-21T01:35:22.853Z,10.95
2018-05-21T01:37:50.456Z,11.05
2018-05-21T01:40:18.054Z,10.98
2018-05-21T01:42:45.707Z,10.91
2018-05-21T01:45:13.290Z,10.81
2018-05-21T01:47:40.934Z,10.72
2018-05-21T01:50:15.878Z,10.60
2018-05-21T01:52:43.528Z,10.56
2018-05-21T01:55:11.127Z,10.74
2018-05-21T01:57:38.787Z,10.79
2018-05-21T02:00:06.433Z,10.93
2018-05-21T02:02:34.088Z,10.72
2018-05-21T02:05:01.710Z,10.70
2018-05-21T02:07:29.357Z,10.58
2018-05-21T02:09:56.994Z,10.49
2018-05-21T02:12:24.662Z,10.51
2018-05-21T02:14:52.250Z,10.50
2018-05-21T02:17:19.914Z,10.52
2018-05-21T02:19:47.504Z,10.62
2018-05-21T02:22:15.145Z,10.65
2018-05-21T02:24:42.754Z,10.63
2018-05-21T02:27:10.412Z,10.60
2018-05-21T02:29:38.078Z,10.54
2018-05-21T02:32:05.731Z,10.46
2018-05-21T02:34:33.406Z,10.49
2018-05-21T02:37:01.052Z,10.51
2018-05-21T02:39:28.659Z,10.58
2018-05-21T02:41:56.309Z,10.72
2018-05-21T02:44:23.913Z,10.79
2018-05-21T02:46:51.549Z,10.86
2018-05-21T02:49:19.210Z,11.05
2018-05-21T02:51:46.825Z,11.09
2018-05-21T02:54:14.453Z,10.73
2018-05-21T02:56:42.084Z,10.66
2018-05-21T02:59:09.740Z,10.67
2018-05-21T03:01:37.432Z,10.73
2018-05-21T03:04:05.032Z,10.83
2018-05-21T03:06:32.695Z,10.91
2018-05-21T03:09:00.323Z,10.87
2018-05-21T03:11:28.016Z,10.85
2018-05-21T03:13:55.600Z,10.84
2018-05-21T03:16:23.242Z,10.82
2018-05-21T03:18:50.867Z,10.85
2018-05-21T03:21:18.524Z,10.91
2018-05-21T03:23:46.132Z,10.99
2018-05-21T03:26:13.758Z,11.02
2018-05-21T03:28:41.358Z,11.08
2018-05-21T03:31:09.015Z,10.98
2018-05-21T03:33:36.678Z,10.98
2018-05-21T03:36:04.394Z,10.86
2018-05-21T03:38:32.085Z,10.89
2018-05-21T03:40:59.729Z,10.90
2018-05-21T03:43:27.384Z,11.00
2018-05-21T03:45:55.024Z,10.94
2018-05-21T03:48:22.608Z,10.90
2018-05-21T03:50:50.252Z,10.75
2018-05-21T03:53:18.965Z,10.93
2018-05-21T03:55:46.604Z,11.01
2018-05-21T03:58:25.983Z,11.00
2018-05-21T04:01:05.283Z,11.07
2018-05-21T04:03:44.709Z,11.05
2018-05-21T04:06:12.476Z,11.07
2018-05-21T04:08:40.088Z,11.13
2018-05-21T04:11:07.807Z,11.13
2018-05-21T04:13:35.482Z,11.10
2018-05-21T04:16:04.292Z,11.10
2018-05-21T04:18:31.996Z,11.13
2018-05-21T04:20:59.618Z,11.18
2018-05-21T04:23:27.276Z,11.22
2018-05-21T04:25:54.982Z,11.25
2018-05-21T04:28:23.582Z,11.34
2018-05-21T04:30:51.181Z,11.57
2018-05-21T04:33:18.849Z,11.47
2018-05-21T04:35:46.463Z,11.40
2018-05-21T04:38:14.088Z,11.42
2018-05-21T04:40:41.772Z,11.40
2018-05-21T04:43:09.430Z,11.46
2018-05-21T04:45:37.079Z,11.54
2018-05-21T04:48:04.691Z,11.57
2018-05-21T04:50:32.347Z,11.84
2018-05-21T04:53:00.057Z,11.94
2018-05-21T04:55:27.709Z,11.94
2018-05-21T04:57:55.396Z,11.89
2018-05-21T05:00:23.049Z,11.91
2018-05-21T05:02:50.645Z,11.97
2018-05-21T05:05:18.306Z,12.11
2018-05-21T05:07:45.977Z,12.00
2018-05-21T05:10:13.634Z,12.02
2018-05-21T05:12:41.317Z,12.08
2018-05-21T05:15:08.966Z,12.17
2018-05-21T05:17:36.614Z,12.22
2018-05-21T05:20:04.364Z,12.35
2018-05-21T05:22:31.981Z,12.50
2018-05-21T05:25:00.505Z,12.61
2018-05-21T05:27:28.121Z,12.68
2018-05-21T05:29:55.777Z,12.73
2018-05-21T05:32:23.377Z,12.71
2018-05-21T05:34:51.025Z,12.82
2018-05-21T05:37:18.639Z,12.97
2018-05-21T05:39:46.470Z,12.95
2018-05-21T05:42:14.245Z,13.01
2018-05-21T05:44:42.344Z,13.06
2018-05-21T05:47:10.319Z,13.15
2018-05-21T05:49:38.222Z,13.18
2018-05-21T05:52:06.087Z,13.27
2018-05-21T05:54:35.213Z,13.33
2018-05-21T05:57:03.215Z,13.44
2018-05-21T05:59:31.033Z,13.56
2018-05-21T06:01:59.218Z,13.88
2018-05-21T06:04:28.037Z,13.90
2018-05-21T06:06:55.762Z,13.93
2018-05-21T06:09:23.900Z,13.95
2018-05-21T06:11:51.810Z,14.03
2018-05-21T06:14:20.564Z,14.13
2018-05-21T06:16:48.363Z,14.28
2018-05-21T06:19:17.271Z,14.35
2018-05-21T06:21:45.029Z,14.80
2018-05-21T06:24:12.802Z,15.18
2018-05-21T06:26:42.018Z,15.29
2018-05-21T06:29:09.901Z,16.03
2018-05-21T06:31:37.573Z,16.49
2018-05-21T06:34:05.297Z,16.67
2018-05-21T06:36:32.986Z,16.19
2018-05-21T06:39:00.633Z,16.64
2018-05-21T06:41:28.340Z,16.47
2018-05-21T06:43:55.951Z,16.31
2018-05-21T06:46:23.566Z,16.50
2018-05-21T06:48:51.883Z,16.83
2018-05-21T06:51:20.364Z,16.96
2018-05-21T06:53:48.824Z,17.51
2018-05-21T06:56:17.433Z,17.62
2018-05-21T06:58:45.180Z,17.47
2018-05-21T07:01:12.905Z,17.62
2018-05-21T07:03:40.633Z,18.06
2018-05-21T07:06:08.667Z,18.02
2018-05-21T07:08:36.347Z,18.14
2018-05-21T07:11:03.998Z,19.16
2018-05-21T07:13:31.741Z,18.81
2018-05-21T07:15:59.585Z,18.42
2018-05-21T07:18:27.757Z,18.86
2018-05-21T07:20:57.097Z,18.53
2018-05-21T07:23:24.842Z,18.01
2018-05-21T07:25:52.846Z,18.60
2018-05-21T07:28:22.466Z,19.12
2018-05-21T07:30:50.839Z,18.64
2018-05-21T07:33:18.693Z,18.82
2018-05-21T07:35:46.943Z,18.98
2018-05-21T07:38:14.841Z,18.67
2018-05-21T07:40:45.194Z,18.59
2018-05-21T07:43:12.832Z,19.23
2018-05-21T07:45:40.663Z,18.80
2018-05-21T07:48:08.325Z,18.60
2018-05-21T07:50:36.091Z,18.78
2018-05-21T07:53:06.563Z,19.48
2018-05-21T07:55:34.181Z,20.11
2018-05-21T07:58:01.855Z,20.24
2018-05-21T08:00:29.540Z,19.36
2018-05-21T08:02:57.181Z,20.02
2018-05-21T08:05:24.907Z,20.38
2018-05-21T08:07:52.607Z,19.56
2018-05-21T08:10:20.357Z,19.57
2018-05-21T08:12:48.074Z,20.27
2018-05-21T08:15:15.743Z,20.55
2018-05-21T08:17:43.446Z,20.46
2018-05-21T08:20:11.353Z,20.73
2018-05-21T08:22:39.013Z,20.96
2018-05-21T08:25:06.675Z,20.94
2018-05-21T08:27:34.361Z,20.83
2018-05-21T08:30:02.056Z,19.64
2018-05-21T08:32:29.681Z,20.33
2018-05-21T08:34:57.349Z,20.49
2018-05-21T08:37:25.035Z,20.59
2018-05-21T08:39:52.713Z,21.01
2018-05-21T08:42:21.214Z,21.30
2018-05-21T08:44:48.831Z,20.50
2018-05-21T08:47:16.504Z,21.36
2018-05-21T08:49:44.125Z,21.41
2018-05-21T08:52:11.797Z,21.41
2018-05-21T08:54:39.410Z,21.43
2018-05-21T08:57:07.116Z,21.38
2018-05-21T08:59:34.723Z,20.94
2018-05-21T09:02:02.451Z,21.54
2018-05-21T09:04:30.197Z,21.27
2018-05-21T09:06:57.870Z,21.42
2018-05-21T09:09:25.550Z,20.87
2018-05-21T09:11:53.218Z,20.30
2018-05-21T09:14:20.844Z,20.33
2018-05-21T09:16:48.617Z,20.68
2018-05-21T09:19:17.114Z,20.79
2018-05-21T09:21:44.773Z,20.99
2018-05-21T09:24:12.473Z,21.17
2018-05-21T09:26:40.155Z,21.09
2018-05-21T09:29:07.844Z,21.36
2018-05-21T09:31:35.576Z,21.24
2018-05-21T09:34:03.214Z,21.20
2018-05-21T09:36:30.907Z,21.14
2018-05-21T09:38:58.548Z,20.68
2018-05-21T09:41:26.245Z,20.74
2018-05-21T09:43:53.860Z,20.46
2018-05-21T09:46:21.534Z,20.95
2018-05-21T09:48:49.208Z,21.10
2018-05-21T09:51:16.908Z,21.28
2018-05-21T09:53:44.548Z,21.61
2018-05-21T09:56:12.207Z,22.03
2018-05-21T09:58:39.832Z,22.68
2018-05-21T10:01:07.515Z,22.93
2018-05-21T10:03:35.214Z,23.05
2018-05-21T10:06:02.872Z,23.50
2018-05-21T10:08:30.549Z,21.85
2018-05-21T10:10:59.194Z,22.21
2018-05-21T10:13:26.790Z,23.01
2018-05-21T10:15:54.438Z,23.01
2018-05-21T10:18:22.139Z,23.18
2018-05-21T10:20:49.766Z,23.12
2018-05-21T10:23:17.429Z,22.53
2018-05-21T10:25:45.054Z,22.96
2018-05-21T10:28:12.735Z,22.91
2018-05-21T10:30:40.350Z,22.91
2018-05-21T10:33:08.074Z,23.05
2018-05-21T10:35:35.711Z,23.60
2018-05-21T10:38:03.384Z,24.24
2018-05-21T10:40:31.084Z,23.86
2018-05-21T10:42:58.695Z,23.39
2018-05-21T10:45:26.369Z,22.28
2018-05-21T10:47:54.022Z,22.21
2018-05-21T10:50:21.663Z,22.44
2018-05-21T10:52:49.301Z,22.35
2018-05-21T10:55:17.019Z,22.07
2018-05-21T10:57:44.775Z,21.73
2018-05-21T11:00:12.399Z,21.91
2018-05-21T11:02:40.135Z,22.18
2018-05-21T11:05:07.809Z,21.88
2018-05-21T11:07:35.507Z,21.90
2018-05-21T11:10:03.168Z,22.01
2018-05-21T11:12:30.879Z,21.91
2018-05-21T11:14:58.630Z,21.52
2018-05-21T11:17:26.288Z,21.53
2018-05-21T11:19:53.952Z,21.72
2018-05-21T11:22:21.585Z,21.44
2018-05-21T11:24:49.245Z,21.60
2018-05-21T11:27:16.941Z,21.62
2018-05-21T11:29:44.616Z,21.45
2018-05-21T11:32:12.229Z,21.50
2018-05-21T11:34:39.917Z,21.15
2018-05-21T11:37:07.602Z,21.59
2018-05-21T11:39:35.255Z,21.75
2018-05-21T11:42:02.859Z,22.23
2018-05-21T11:44:30.556Z,22.63
2018-05-21T11:46:58.649Z,22.03
2018-05-21T11:49:27.495Z,22.50
2018-05-21T11:51:55.194Z,22.23
2018-05-21T11:54:22.919Z,22.21
2018-05-21T11:56:51.135Z,22.06
2018-05-21T11:59:19.008Z,21.37
2018-05-21T12:01:46.624Z,21.56
2018-05-21T12:04:14.313Z,21.39
2018-05-21T12:06:41.972Z,21.40
2018-05-21T12:09:09.701Z,21.54
2018-05-21T12:11:37.367Z,21.59
2018-05-21T12:14:05.084Z,21.93
2018-05-21T12:16:32.728Z,22.10
2018-05-21T12:19:00.393Z,22.69
2018-05-21T12:21:28.089Z,22.25
2018-05-21T12:23:55.787Z,22.69
2018-05-21T12:26:23.951Z,22.61
2018-05-21T12:28:51.645Z,22.23
2018-05-21T12:31:19.293Z,22.21
2018-05-21T12:33:46.919Z,22.36
2018-05-21T12:36:14.587Z,21.97
2018-05-21T12:38:42.216Z,21.81
2018-05-21T12:41:09.959Z,21.65
2018-05-21T12:43:37.613Z,21.89
2018-05-21T12:46:05.440Z,21.73
2018-05-21T12:48:33.191Z,22.02
2018-05-21T12:51:00.811Z,22.50
2018-05-21T12:53:28.555Z,22.53
2018-05-21T12:55:56.228Z,22.24
2018-05-21T12:58:23.873Z,22.46
2018-05-21T13:00:51.503Z,22.55
2018-05-21T13:03:19.157Z,22.42
2018-05-21T13:05:46.760Z,22.45
2018-05-21T13:08:14.456Z,22.36
2018-05-21T13:10:42.078Z,22.40
2018-05-21T13:13:09.811Z,22.85
2018-05-21T13:15:37.461Z,23.16
2018-05-21T13:18:05.197Z,23.57
2018-05-21T13:20:32.887Z,23.68
2018-05-21T13:23:00.556Z,23.51
2018-05-21T13:25:28.167Z,23.39
2018-05-21T13:27:55.872Z,23.14
2018-05-21T13:30:23.552Z,22.96
2018-05-21T13:32:51.248Z,22.99
2018-05-21T13:35:18.904Z,23.07
2018-05-21T13:37:46.516Z,23.05
2018-05-21T13:40:15.355Z,23.24
2018-05-21T13:42:43.038Z,23.18
2018-05-21T13:45:10.658Z,22.97
2018-05-21T13:47:38.337Z,22.75
2018-05-21T13:50:06.042Z,22.86
2018-05-21T13:52:33.722Z,23.36
2018-05-21T13:55:01.374Z,23.49
2018-05-21T13:57:29.019Z,23.30
2018-05-21T13:59:56.677Z,22.82
2018-05-21T14:02:24.280Z,22.71
2018-05-21T14:04:52.364Z,22.66
2018-05-21T14:07:20.981Z,22.44
2018-05-21T14:09:48.611Z,22.26
2018-05-21T14:12:16.858Z,22.57
2018-05-21T14:14:44.671Z,22.68
2018-05-21T14:17:12.395Z,22.69
2018-05-21T14:19:40.102Z,22.09
2018-05-21T14:22:07.725Z,21.86
2018-05-21T14:24:35.378Z,21.83
2018-05-21T14:27:04.023Z,21.73
2018-05-21T14:29:31.859Z,21.88
2018-05-21T14:31:59.582Z,22.04
2018-05-21T14:34:27.385Z,22.26
2018-05-21T14:36:55.112Z,22.70
2018-05-21T14:39:22.769Z,23.08
2018-05-21T14:41:50.575Z,23.06
2018-05-21T14:44:18.190Z,22.72
2018-05-21T14:46:45.909Z,22.78
2018-05-21T14:49:13.544Z,22.80
2018-05-21T14:51:41.249Z,22.59
2018-05-21T14:54:08.979Z,22.66
2018-05-21T14:56:36.955Z,22.49
2018-05-21T14:59:04.734Z,22.60
2018-05-21T15:01:32.580Z,22.66
2018-05-21T15:04:00.239Z,22.41
2018-05-21T15:06:27.994Z,22.89
2018-05-21T15:08:55.600Z,22.82
2018-05-21T15:11:23.296Z,22.87
2018-05-21T15:13:51.016Z,22.73
2018-05-21T15:16:18.626Z,22.75
2018-05-21T15:18:46.312Z,22.67
2018-05-21T15:21:13.917Z,22.51
2018-05-21T15:23:41.634Z,22.65
2018-05-21T15:26:09.281Z,21.92
2018-05-21T15:28:36.957Z,22.27
2018-05-21T15:31:04.654Z,22.08
2018-05-21T15:33:32.995Z,22.26
2018-05-21T15:36:00.721Z,22.32
2018-05-21T15:38:28.455Z,22.51
2018-05-21T15:40:56.149Z,22.27
2018-05-21T15:43:23.843Z,22.27
2018-05-21T15:45:51.495Z,22.24
2018-05-21T15:48:19.187Z,22.20
2018-05-21T15:50:46.845Z,22.50
2018-05-21T15:53:14.525Z,22.41
2018-05-21T15:55:42.150Z,22.19
2018-05-21T15:58:09.878Z,21.85
2018-05-21T16:00:37.483Z,21.74
2018-05-21T16:03:06.095Z,21.61
2018-05-21T16:05:33.848Z,21.38
2018-05-21T16:08:01.492Z,21.37
2018-05-21T16:10:29.208Z,21.27
2018-05-21T16:12:58.049Z,21.39
2018-05-21T16:15:25.759Z,21.28
2018-05-21T16:17:53.464Z,21.07
2018-05-21T16:20:21.083Z,21.03
2018-05-21T16:22:48.743Z,20.98
2018-05-21T16:25:16.542Z,20.86
2018-05-21T16:27:44.302Z,20.79
2018-05-21T16:30:12.280Z,20.94
2018-05-21T16:32:39.931Z,20.92
2018-05-21T16:35:07.600Z,20.83
2018-05-21T16:37:35.343Z,20.75
2018-05-21T16:40:03.097Z,20.60
2018-05-21T16:42:30.808Z,20.59
2018-05-21T16:44:58.477Z,20.54
2018-05-21T16:47:26.143Z,20.42
2018-05-21T16:49:53.889Z,20.50
2018-05-21T16:52:21.525Z,20.40
2018-05-21T16:54:49.235Z,20.40
2018-05-21T16:57:16.876Z,20.45
2018-05-21T16:59:44.537Z,20.30
2018-05-21T17:02:12.242Z,20.38
2018-05-21T17:04:39.856Z,20.26
2018-05-21T17:07:07.577Z,20.32
2018-05-21T17:09:35.294Z,20.32
2018-05-21T17:12:03.099Z,20.25
2018-05-21T17:14:31.542Z,20.14
2018-05-21T17:16:59.389Z,20.24
2018-05-21T17:19:27.100Z,20.22
2018-05-21T17:21:55.321Z,20.11
2018-05-21T17:24:23.008Z,19.86
2018-05-21T17:26:50.712Z,19.95
2018-05-21T17:29:18.501Z,20.07
2018-05-21T17:31:46.220Z,20.07
2018-05-21T17:34:13.881Z,19.94
2018-05-21T17:36:41.693Z,20.04
2018-05-21T17:39:10.532Z,19.85
2018-05-21T17:41:38.277Z,19.86
2018-05-21T17:44:06.630Z,19.70
2018-05-21T17:46:34.297Z,19.80
2018-05-21T17:49:02.043Z,19.72
2018-05-21T17:51:29.754Z,19.70
2018-05-21T17:53:57.410Z,19.74
2018-05-21T17:56:26.241Z,19.67
2018-05-21T17:58:54.142Z,19.57
2018-05-21T18:01:21.798Z,19.45
2018-05-21T18:03:49.664Z,19.55
2018-05-21T18:06:17.394Z,19.52
2018-05-21T18:08:45.158Z,19.56
2018-05-21T18:11:12.897Z,19.65
2018-05-21T18:13:41.463Z,19.50
2018-05-21T18:16:09.487Z,19.51
2018-05-21T18:18:37.287Z,19.61
2018-05-21T18:21:06.145Z,19.46
2018-05-21T18:23:33.828Z,19.46
2018-05-21T18:26:01.560Z,19.51
2018-05-21T18:28:29.358Z,19.28
2018-05-21T18:30:57.124Z,19.10
2018-05-21T18:33:25.068Z,19.17
2018-05-21T18:35:53.633Z,19.21
2018-05-21T18:38:22.238Z,19.18
2018-05-21T18:40:50.414Z,19.16
2018-05-21T18:43:18.921Z,19.06
2018-05-21T18:45:46.685Z,18.95
2018-05-21T18:48:15.600Z,18.93
2018-05-21T18:50:44.251Z,18.84
2018-05-21T18:53:12.016Z,18.81
2018-05-21T18:55:40.042Z,18.66
2018-05-21T18:58:09.322Z,18.55
2018-05-21T19:00:38.676Z,18.35
2018-05-21T19:03:07.723Z,18.23
2018-05-21T19:05:35.833Z,17.99
2018-05-21T19:08:03.623Z,17.88
2018-05-21T19:10:32.036Z,17.91
2018-05-21T19:13:01.683Z,17.89
2018-05-21T19:15:29.364Z,17.66
2018-05-21T19:17:57.462Z,17.60
2018-05-21T19:20:25.444Z,17.52
2018-05-21T19:22:54.364Z,17.34
2018-05-21T19:25:22.604Z,17.23
2018-05-21T19:27:50.771Z,17.12
2018-05-21T19:30:19.085Z,17.04
2018-05-21T19:32:48.199Z,17.05
2018-05-21T19:35:16.508Z,17.01
2018-05-21T19:37:44.599Z,16.95
2018-05-21T19:40:13.095Z,16.88
2018-05-21T19:42:41.211Z,17.00
2018-05-21T19:45:09.017Z,16.93
2018-05-21T19:47:37.765Z,16.61
2018-05-21T19:50:06.515Z,16.44
2018-05-21T19:52:34.764Z,16.43
2018-05-21T19:55:02.599Z,16.31
2018-05-21T19:57:32.654Z,16.17
2018-05-21T20:00:00.653Z,16.18
2018-05-21T20:02:31.963Z,15.98
2018-05-21T20:04:59.876Z,16.21
2018-05-21T20:07:28.419Z,16.07
2018-05-21T20:09:56.391Z,16.07
2018-05-21T20:12:24.503Z,15.75
2018-05-21T20:14:52.918Z,15.65
2018-05-21T20:17:21.216Z,15.62
2018-05-21T20:19:49.777Z,15.35
2018-05-21T20:22:18.817Z,15.41
2018-05-21T20:24:47.596Z,15.39
2018-05-21T20:27:15.733Z,15.31
2018-05-21T20:29:43.480Z,15.40
2018-05-21T20:32:11.276Z,15.25
2018-05-21T20:34:39.040Z,15.27
2018-05-21T20:37:07.215Z,15.16
2018-05-21T20:39:34.954Z,15.20
2018-05-21T20:42:02.768Z,15.18
2018-05-21T20:44:30.478Z,15.23
2018-05-21T20:46:58.131Z,15.11
2018-05-21T20:49:25.833Z,15.13
2018-05-21T20:51:53.484Z,15.18
2018-05-21T20:54:21.199Z,14.92
2018-05-21T20:56:49.760Z,14.96
2018-05-21T20:59:17.528Z,14.95
2018-05-21T21:01:45.184Z,14.85
2018-05-21T21:04:12.793Z,14.77
2018-05-21T21:06:40.550Z,14.73
2018-05-21T21:09:08.168Z,14.68
2018-05-21T21:11:35.836Z,14.55
2018-05-21T21:14:03.486Z,14.53
2018-05-21T21:16:31.144Z,14.48
2018-05-21T21:18:58.771Z,14.50
2018-05-21T21:21:26.474Z,14.60
2018-05-21T21:23:54.169Z,14.47
2018-05-21T21:26:22.618Z,14.29
2018-05-21T21:28:50.251Z,14.23
2018-05-21T21:31:17.962Z,14.16
2018-05-21T21:33:45.572Z,14.19
2018-05-21T21:36:13.249Z,14.08
2018-05-21T21:38:40.906Z,14.16
2018-05-21T21:41:08.515Z,14.21
2018-05-21T21:43:36.912Z,14.17
2018-05-21T21:46:05.099Z,14.10
2018-05-21T21:48:32.774Z,14.20
2018-05-21T21:51:00.448Z,14.23
2018-05-21T21:53:28.316Z,14.15
2018-05-21T21:55:55.910Z,14.11
2018-05-21T21:58:23.548Z,14.00
2018-05-21T22:00:51.182Z,13.93
2018-05-21T22:03:19.051Z,14.00
2018-05-21T22:05:46.644Z,13.87
2018-05-21T22:08:14.498Z,13.84
2018-05-21T22:10:42.165Z,13.82
2018-05-21T22:13:09.817Z,13.83
2018-05-21T22:15:37.887Z,13.91
2018-05-21T22:18:05.766Z,13.97
2018-05-21T22:20:33.438Z,14.06
2018-05-21T22:23:01.089Z,13.89
2018-05-21T22:25:28.721Z,13.91
2018-05-21T22:27:56.429Z,13.82
2018-05-21T22:30:24.516Z,13.91
2018-05-21T22:32:52.196Z,13.71
2018-05-21T22:35:19.809Z,13.65
2018-05-21T22:37:47.573Z,13.67
2018-05-21T22:40:15.181Z,13.59
2018-05-21T22:42:45.253Z,13.47
2018-05-21T22:45:12.924Z,13.56
2018-05-21T22:47:40.577Z,13.56
2018-05-21T22:50:08.183Z,13.42
2018-05-21T22:52:35.947Z,13.47
2018-05-21T22:55:03.602Z,13.36
2018-05-21T22:57:31.251Z,13.35
2018-05-21T22:59:58.851Z,13.40
2018-05-21T23:02:26.442Z,13.34
2018-05-21T23:04:54.138Z,13.31
2018-05-21T23:07:21.731Z,13.31
2018-05-21T23:09:49.425Z,13.35
2018-05-21T23:12:17.036Z,13.25
2018-05-21T23:14:44.704Z,13.24
2018-05-21T23:17:12.345Z,12.99
2018-05-21T23:19:40.019Z,12.90
2018-05-21T23:22:07.853Z,12.88
2018-05-21T23:24:35.501Z,12.82
2018-05-21T23:27:03.595Z,12.71
2018-05-21T23:29:31.448Z,12.81
2018-05-21T23:31:59.041Z,12.76
2018-05-21T23:34:26.782Z,12.75
2018-05-21T23:36:55.673Z,12.78
2018-05-21T23:39:23.286Z,12.72
2018-05-21T23:41:50.949Z,12.74
2018-05-21T23:44:18.620Z,12.74
2018-05-21T23:46:46.320Z,12.74
2018-05-21T23:49:13.894Z,12.78
2018-05-21T23:51:41.642Z,12.61
2018-05-21T23:54:09.264Z,12.56
2018-05-21T23:56:38.229Z,12.31
2018-05-21T23:59:06.500Z,12.33
